Terminal Aerodrome Forecast
Issued by NWS

Home | Current Version | Previous Version | Text Only | Print | Product List | Glossary Off
Versions: 1 2 3 4 5 6 7 8 9 10 11 12 13 14 15 16 17 18 19 20 21 22 23 24 25 26 27 28 29 30 31

000
FTUS43 KLOT 242300
TAFDPA
TAF
KDPA 242330Z 2500/2524 15014G22KT P6SM -SHRA OVC060
     FM250200 14011KT 6SM -SHRA SCT025 OVC050
     FM250500 08007KT 5SM -SHRA SCT007 OVC015
     FM250900 34010KT P6SM BKN020
     FM251300 33012G17KT P6SM SCT040
     FM251600 30015G23KT P6SM FEW250=

USA.gov is the U.S. government's official web portal to all federal, state and local government web resources and services.